sensor_id;sensor_type;location;lat;lon;timestamp;pressure;altitude;pressure_sealevel;temperature;humidity
12951;BME280;6540;50.858;7.232;2023-06-22T00:01:15;51473.28;;;-142.34;27.62
12951;BME280;6540;50.858;7.232;2023-06-22T00:03:41;51471.28;;;-142.34;27.40
12951;BME280;6540;50.858;7.232;2023-06-22T00:06:06;51459.16;;;-142.34;27.12
12951;BME280;6540;50.858;7.232;2023-06-22T00:08:31;51465.22;;;-142.34;27.19
12951;BME280;6540;50.858;7.232;2023-06-22T00:10:57;51445.06;;;-142.34;26.73
12951;BME280;6540;50.858;7.232;2023-06-22T00:13:22;51434.97;;;-142.34;26.75
12951;BME280;6540;50.858;7.232;2023-06-22T00:15:48;51463.22;;;-142.34;27.28
12951;BME280;6540;50.858;7.232;2023-06-22T00:18:13;51487.41;;;-142.34;28.06
12951;BME280;6540;50.858;7.232;2023-06-22T00:20:39;51483.38;;;-142.34;28.15
12951;BME280;6540;50.858;7.232;2023-06-22T00:23:06;51455.13;;;-142.34;27.62
12951;BME280;6540;50.858;7.232;2023-06-22T00:25:40;51434.97;;;-142.34;27.23
12951;BME280;6540;50.858;7.232;2023-06-22T00:28:06;51453.13;;;-142.34;27.58
12951;BME280;6540;50.858;7.232;2023-06-22T00:30:33;51483.38;;;-142.34;27.64
12951;BME280;6540;50.858;7.232;2023-06-22T00:32:59;51471.28;;;-142.34;27.83
12951;BME280;6540;50.858;7.232;2023-06-22T00:35:25;51505.56;;;-142.34;27.94
12951;BME280;6540;50.858;7.232;2023-06-22T00:37:54;51509.59;;;-142.34;28.47
12951;BME280;6540;50.858;7.232;2023-06-22T00:40:26;51519.69;;;-142.34;28.56
12951;BME280;6540;50.858;7.232;2023-06-22T00:42:51;51495.47;;;-142.34;28.12
12951;BME280;6540;50.858;7.232;2023-06-22T00:45:16;51495.47;;;-142.34;28.46
12951;BME280;6540;50.858;7.232;2023-06-22T00:47:42;51519.69;;;-142.34;28.49
12951;BME280;6540;50.858;7.232;2023-06-22T00:50:10;51439.00;;;-142.34;27.51
12951;BME280;6540;50.858;7.232;2023-06-22T00:52:43;51432.94;;;-142.34;27.28
12951;BME280;6540;50.858;7.232;2023-06-22T00:55:09;51463.22;;;-142.34;27.53
12951;BME280;6540;50.858;7.232;2023-06-22T00:57:35;51519.69;;;-142.34;28.03
12951;BME280;6540;50.858;7.232;2023-06-22T01:00:03;51477.31;;;-142.34;28.11
12951;BME280;6540;50.858;7.232;2023-06-22T01:02:31;51471.28;;;-142.34;27.97
12951;BME280;6540;50.858;7.232;2023-06-22T01:04:57;51475.31;;;-142.34;27.44
12951;BME280;6540;50.858;7.232;2023-06-22T01:07:33;51447.06;;;-142.34;27.02
12951;BME280;6540;50.858;7.232;2023-06-22T01:12:52;51471.28;;;-142.34;27.55
12951;BME280;6540;50.858;7.232;2023-06-22T01:17:51;51491.44;;;-142.34;28.83
12951;BME280;6540;50.858;7.232;2023-06-22T01:20:17;51515.66;;;-142.34;28.08
12951;BME280;6540;50.858;7.232;2023-06-22T01:25:57;51507.59;;;-142.34;28.01
12951;BME280;6540;50.858;7.232;2023-06-22T01:31:07;51511.63;;;-142.34;27.95
12951;BME280;6540;50.858;7.232;2023-06-22T01:33:35;51499.50;;;-142.34;27.90
12951;BME280;6540;50.858;7.232;2023-06-22T01:36:02;51483.38;;;-142.34;27.71
12951;BME280;6540;50.858;7.232;2023-06-22T01:38:29;51491.44;;;-142.34;27.81
12951;BME280;6540;50.858;7.232;2023-06-22T01:40:57;51499.50;;;-142.34;27.22
12951;BME280;6540;50.858;7.232;2023-06-22T01:43:23;51507.59;;;-142.34;27.58
12951;BME280;6540;50.858;7.232;2023-06-22T01:45:50;51501.53;;;-142.34;28.22
12951;BME280;6540;50.858;7.232;2023-06-22T01:48:17;51495.47;;;-142.34;27.54
12951;BME280;6540;50.858;7.232;2023-06-22T01:50:43;51432.94;;;-142.34;27.39
12951;BME280;6540;50.858;7.232;2023-06-22T01:53:08;51461.19;;;-142.34;27.26
12951;BME280;6540;50.858;7.232;2023-06-22T01:55:33;51475.31;;;-142.34;27.18
12951;BME280;6540;50.858;7.232;2023-06-22T01:57:59;51483.38;;;-142.34;27.31
12951;BME280;6540;50.858;7.232;2023-06-22T02:00:28;51531.78;;;-142.34;28.00
12951;BME280;6540;50.858;7.232;2023-06-22T02:02:59;51495.47;;;-142.34;27.39
12951;BME280;6540;50.858;7.232;2023-06-22T02:05:29;51499.50;;;-142.34;27.89
12951;BME280;6540;50.858;7.232;2023-06-22T02:10:34;51487.41;;;-142.34;27.43
12951;BME280;6540;50.858;7.232;2023-06-22T02:13:03;51485.41;;;-142.34;27.51
12951;BME280;6540;50.858;7.232;2023-06-22T02:15:30;51485.41;;;-142.34;27.80
12951;BME280;6540;50.858;7.232;2023-06-22T02:17:55;51531.78;;;-142.34;27.42
12951;BME280;6540;50.858;7.232;2023-06-22T02:20:21;51467.25;;;-142.34;27.30
12951;BME280;6540;50.858;7.232;2023-06-22T02:22:46;51461.19;;;-142.34;27.10
12951;BME280;6540;50.858;7.232;2023-06-22T02:25:12;51477.31;;;-142.34;27.40
12951;BME280;6540;50.858;7.232;2023-06-22T02:27:37;51455.13;;;-142.34;27.47
12951;BME280;6540;50.858;7.232;2023-06-22T02:30:09;51479.34;;;-142.34;26.94
12951;BME280;6540;50.858;7.232;2023-06-22T02:32:35;51443.03;;;-142.34;26.67
12951;BME280;6540;50.858;7.232;2023-06-22T02:35:01;51477.31;;;-142.34;27.78
12951;BME280;6540;50.858;7.232;2023-06-22T02:37:30;51527.75;;;-142.34;28.22
12951;BME280;6540;50.858;7.232;2023-06-22T02:39:56;51475.31;;;-142.34;27.85
12951;BME280;6540;50.858;7.232;2023-06-22T02:42:21;51493.47;;;-142.34;27.97
12951;BME280;6540;50.858;7.232;2023-06-22T02:44:47;51511.63;;;-142.34;27.82
12951;BME280;6540;50.858;7.232;2023-06-22T02:47:12;51499.50;;;-142.34;28.49
12951;BME280;6540;50.858;7.232;2023-06-22T02:49:37;51507.59;;;-142.34;27.78
12951;BME280;6540;50.858;7.232;2023-06-22T02:52:03;51503.53;;;-142.34;28.02
12951;BME280;6540;50.858;7.232;2023-06-22T02:54:29;51485.41;;;-142.34;27.46
12951;BME280;6540;50.858;7.232;2023-06-22T02:56:54;51523.72;;;-142.34;27.63
12951;BME280;6540;50.858;7.232;2023-06-22T02:59:20;51465.22;;;-142.34;27.01
12951;BME280;6540;50.858;7.232;2023-06-22T03:01:49;51471.28;;;-142.34;27.24
12951;BME280;6540;50.858;7.232;2023-06-22T03:04:15;51479.34;;;-142.34;27.20
12951;BME280;6540;50.858;7.232;2023-06-22T03:06:41;51487.41;;;-142.34;27.17
12951;BME280;6540;50.858;7.232;2023-06-22T03:09:06;51479.34;;;-142.34;27.10
12951;BME280;6540;50.858;7.232;2023-06-22T03:11:32;51459.16;;;-142.34;27.00
12951;BME280;6540;50.858;7.232;2023-06-22T03:13:58;51439.00;;;-142.34;27.01
12951;BME280;6540;50.858;7.232;2023-06-22T03:16:25;51481.34;;;-142.34;27.51
12951;BME280;6540;50.858;7.232;2023-06-22T03:18:50;51463.22;;;-142.34;27.34
12951;BME280;6540;50.858;7.232;2023-06-22T03:21:16;51465.22;;;-142.34;27.29
12951;BME280;6540;50.858;7.232;2023-06-22T03:23:42;51535.81;;;-142.34;28.39
12951;BME280;6540;50.858;7.232;2023-06-22T03:26:08;51475.31;;;-142.34;27.54
12951;BME280;6540;50.858;7.232;2023-06-22T03:28:34;51515.66;;;-142.34;28.24
12951;BME280;6540;50.858;7.232;2023-06-22T03:30:59;51529.78;;;-142.34;28.14
12951;BME280;6540;50.858;7.232;2023-06-22T03:33:25;51501.53;;;-142.34;27.66
12951;BME280;6540;50.858;7.232;2023-06-22T03:35:50;51453.13;;;-142.34;27.00
12951;BME280;6540;50.858;7.232;2023-06-22T03:38:19;51459.16;;;-142.34;27.06
12951;BME280;6540;50.858;7.232;2023-06-22T03:40:44;51461.19;;;-142.34;26.92
12951;BME280;6540;50.858;7.232;2023-06-22T03:43:09;51471.28;;;-142.34;26.67
12951;BME280;6540;50.858;7.232;2023-06-22T03:45:35;51467.25;;;-142.34;26.75
12951;BME280;6540;50.858;7.232;2023-06-22T03:48:01;51436.97;;;-142.34;26.87
12951;BME280;6540;50.858;7.232;2023-06-22T03:50:27;51461.19;;;-142.34;27.17
12951;BME280;6540;50.858;7.232;2023-06-22T03:52:52;51459.16;;;-142.34;27.59
12951;BME280;6540;50.858;7.232;2023-06-22T03:55:19;51495.47;;;-142.34;27.52
12951;BME280;6540;50.858;7.232;2023-06-22T03:57:45;51477.31;;;-142.34;27.23
12951;BME280;6540;50.858;7.232;2023-06-22T04:00:11;51467.25;;;-142.34;28.00
12951;BME280;6540;50.858;7.232;2023-06-22T04:02:36;51521.69;;;-142.34;29.05
12951;BME280;6540;50.858;7.232;2023-06-22T04:05:02;51499.50;;;-142.34;28.15
12951;BME280;6540;50.858;7.232;2023-06-22T04:07:27;51467.25;;;-142.34;28.30
12951;BME280;6540;50.858;7.232;2023-06-22T04:09:52;51566.09;;;-142.34;29.54
12951;BME280;6540;50.858;7.232;2023-06-22T04:12:18;51513.63;;;-142.34;28.63
12951;BME280;6540;50.858;7.232;2023-06-22T04:14:43;51455.13;;;-142.34;27.44
12951;BME280;6540;50.858;7.232;2023-06-22T04:17:09;51495.47;;;-142.34;28.49
12951;BME280;6540;50.858;7.232;2023-06-22T04:19:34;51531.78;;;-142.34;28.56
12951;BME280;6540;50.858;7.232;2023-06-22T04:21:59;51560.03;;;-142.34;28.97
12951;BME280;6540;50.858;7.232;2023-06-22T04:24:25;51543.88;;;-142.34;28.96
12951;BME280;6540;50.858;7.232;2023-06-22T04:26:50;51612.47;;;-142.34;30.57
12951;BME280;6540;50.858;7.232;2023-06-22T04:29:18;51507.59;;;-142.34;28.22
12951;BME280;6540;50.858;7.232;2023-06-22T04:31:44;51541.88;;;-142.34;29.30
12951;BME280;6540;50.858;7.232;2023-06-22T04:34:09;51527.75;;;-142.34;29.83
12951;BME280;6540;50.858;7.232;2023-06-22T04:36:37;51560.03;;;-142.34;29.41
12951;BME280;6540;50.858;7.232;2023-06-22T04:39:08;51572.13;;;-142.34;29.98
12951;BME280;6540;50.858;7.232;2023-06-22T04:41:38;51556.00;;;-142.34;29.68
12951;BME280;6540;50.858;7.232;2023-06-22T04:44:13;51584.22;;;-142.34;29.85
12951;BME280;6540;50.858;7.232;2023-06-22T04:46:49;51560.03;;;-142.34;29.20
12951;BME280;6540;50.858;7.232;2023-06-22T04:49:20;51511.63;;;-142.34;28.91
12951;BME280;6540;50.858;7.232;2023-06-22T04:51:45;51551.97;;;-142.34;30.56
12951;BME280;6540;50.858;7.232;2023-06-22T04:54:11;51592.31;;;-142.34;30.68
12951;BME280;6540;50.858;7.232;2023-06-22T04:56:36;51549.94;;;-142.34;29.94
12951;BME280;6540;50.858;7.232;2023-06-22T04:59:02;51556.00;;;-142.34;29.26
12951;BME280;6540;50.858;7.232;2023-06-22T05:01:31;51503.53;;;-142.34;28.38
12951;BME280;6540;50.858;7.232;2023-06-22T05:03:57;51455.13;;;-142.34;28.07
12951;BME280;6540;50.858;7.232;2023-06-22T05:06:23;51471.28;;;-142.34;27.90
12951;BME280;6540;50.858;7.232;2023-06-22T05:08:56;51457.16;;;-142.34;27.70
12951;BME280;6540;50.858;7.232;2023-06-22T05:11:28;51479.34;;;-142.34;27.69
12951;BME280;6540;50.858;7.232;2023-06-22T05:13:53;51465.22;;;-142.34;27.66
12951;BME280;6540;50.858;7.232;2023-06-22T05:16:20;51447.06;;;-142.34;27.93
12951;BME280;6540;50.858;7.232;2023-06-22T05:18:54;51483.38;;;-142.34;28.30
12951;BME280;6540;50.858;7.232;2023-06-22T05:21:25;51457.16;;;-142.34;27.42
12951;BME280;6540;50.858;7.232;2023-06-22T05:23:51;51449.09;;;-142.34;27.44
12951;BME280;6540;50.858;7.232;2023-06-22T05:26:17;51461.19;;;-142.34;28.44
12951;BME280;6540;50.858;7.232;2023-06-22T05:28:43;51473.28;;;-142.34;28.75
12951;BME280;6540;50.858;7.232;2023-06-22T05:31:12;51499.50;;;-142.34;28.98
12951;BME280;6540;50.858;7.232;2023-06-22T05:33:38;51426.91;;;-142.34;27.96
12951;BME280;6540;50.858;7.232;2023-06-22T05:36:04;51384.53;;;-142.34;27.29
12951;BME280;6540;50.858;7.232;2023-06-22T05:38:30;51334.13;;;-142.34;26.92
12951;BME280;6540;50.858;7.232;2023-06-22T05:40:56;51340.16;;;-142.34;26.55
12951;BME280;6540;50.858;7.232;2023-06-22T05:43:21;51273.59;;;-142.34;26.72
12951;BME280;6540;50.858;7.232;2023-06-22T05:45:47;51285.72;;;-142.34;26.10
12951;BME280;6540;50.858;7.232;2023-06-22T05:48:12;51293.78;;;-142.34;26.14
12951;BME280;6540;50.858;7.232;2023-06-22T05:50:37;51275.63;;;-142.34;25.92
12951;BME280;6540;50.858;7.232;2023-06-22T05:53:03;51277.63;;;-142.34;25.73
12951;BME280;6540;50.858;7.232;2023-06-22T05:55:28;51267.56;;;-142.34;25.49
12951;BME280;6540;50.858;7.232;2023-06-22T05:57:53;51225.19;;;-142.34;25.22
12951;BME280;6540;50.858;7.232;2023-06-22T06:00:19;51277.63;;;-142.34;26.04
12951;BME280;6540;50.858;7.232;2023-06-22T06:02:45;51303.84;;;-142.34;26.23
12951;BME280;6540;50.858;7.232;2023-06-22T06:05:11;51368.41;;;-142.34;27.09
12951;BME280;6540;50.858;7.232;2023-06-22T06:07:39;51281.66;;;-142.34;26.42
12951;BME280;6540;50.858;7.232;2023-06-22T06:10:04;51354.28;;;-142.34;26.99
12951;BME280;6540;50.858;7.232;2023-06-22T06:12:31;51354.28;;;-142.34;26.95
12951;BME280;6540;50.858;7.232;2023-06-22T06:14:56;51483.38;;;-142.34;27.97
12951;BME280;6540;50.858;7.232;2023-06-22T06:17:22;51414.78;;;-142.34;27.62
12951;BME280;6540;50.858;7.232;2023-06-22T06:19:47;51430.94;;;-142.34;27.74
12951;BME280;6540;50.858;7.232;2023-06-22T06:22:12;51376.47;;;-142.34;27.15
12951;BME280;6540;50.858;7.232;2023-06-22T06:24:38;51390.59;;;-142.34;27.36
12951;BME280;6540;50.858;7.232;2023-06-22T06:27:03;51358.31;;;-142.34;27.02
12951;BME280;6540;50.858;7.232;2023-06-22T06:29:30;51354.28;;;-142.34;26.85
12951;BME280;6540;50.858;7.232;2023-06-22T06:31:55;51366.38;;;-142.34;26.22
12951;BME280;6540;50.858;7.232;2023-06-22T06:34:21;51338.16;;;-142.34;26.72
12951;BME280;6540;50.858;7.232;2023-06-22T06:36:46;51309.91;;;-142.34;26.49
12951;BME280;6540;50.858;7.232;2023-06-22T06:39:12;51354.28;;;-142.34;26.17
12951;BME280;6540;50.858;7.232;2023-06-22T06:41:37;51370.41;;;-142.34;26.95
12951;BME280;6540;50.858;7.232;2023-06-22T06:44:02;51364.38;;;-142.34;27.06
12951;BME280;6540;50.858;7.232;2023-06-22T06:46:28;51382.53;;;-142.34;26.76
12951;BME280;6540;50.858;7.232;2023-06-22T06:48:53;51330.06;;;-142.34;26.45
12951;BME280;6540;50.858;7.232;2023-06-22T06:51:19;51356.31;;;-142.34;27.05
12951;BME280;6540;50.858;7.232;2023-06-22T06:53:44;51394.63;;;-142.34;27.50
12951;BME280;6540;50.858;7.232;2023-06-22T06:56:09;51364.38;;;-142.34;27.03
12951;BME280;6540;50.858;7.232;2023-06-22T06:58:35;51461.19;;;-142.34;28.56
12951;BME280;6540;50.858;7.232;2023-06-22T07:01:02;51390.59;;;-142.34;28.27
12951;BME280;6540;50.858;7.232;2023-06-22T07:03:28;51410.75;;;-142.34;27.95
12951;BME280;6540;50.858;7.232;2023-06-22T07:05:53;51362.34;;;-142.34;26.56
12951;BME280;6540;50.858;7.232;2023-06-22T07:08:19;51265.53;;;-142.34;26.75
12951;BME280;6540;50.858;7.232;2023-06-22T07:10:44;51293.78;;;-142.34;26.15
12951;BME280;6540;50.858;7.232;2023-06-22T07:13:09;51301.84;;;-142.34;26.59
12951;BME280;6540;50.858;7.232;2023-06-22T07:15:35;51410.75;;;-142.34;27.64
12951;BME280;6540;50.858;7.232;2023-06-22T07:18:00;51455.13;;;-142.34;28.62
12951;BME280;6540;50.858;7.232;2023-06-22T07:20:26;51398.66;;;-142.34;27.25
12951;BME280;6540;50.858;7.232;2023-06-22T07:22:51;51364.38;;;-142.34;27.24
12951;BME280;6540;50.858;7.232;2023-06-22T07:25:17;51326.03;;;-142.34;26.42
12951;BME280;6540;50.858;7.232;2023-06-22T07:28:06;51322.00;;;-142.34;26.42
12951;BME280;6540;50.858;7.232;2023-06-22T07:30:31;51322.00;;;-142.34;26.42
12951;BME280;6540;50.858;7.232;2023-06-22T07:32:57;51394.63;;;-142.34;27.13
12951;BME280;6540;50.858;7.232;2023-06-22T07:35:23;51428.91;;;-142.34;28.47
12951;BME280;6540;50.858;7.232;2023-06-22T07:37:48;51360.34;;;-142.34;27.29
12951;BME280;6540;50.858;7.232;2023-06-22T07:40:14;51293.78;;;-142.34;26.71
12951;BME280;6540;50.858;7.232;2023-06-22T07:42:39;51412.78;;;-142.34;27.90
12951;BME280;6540;50.858;7.232;2023-06-22T07:45:06;51313.94;;;-142.34;26.29
12951;BME280;6540;50.858;7.232;2023-06-22T07:47:33;51346.22;;;-142.34;26.87
12951;BME280;6540;50.858;7.232;2023-06-22T07:50:00;51330.06;;;-142.34;26.88
12951;BME280;6540;50.858;7.232;2023-06-22T07:52:27;51301.84;;;-142.34;26.43
12951;BME280;6540;50.858;7.232;2023-06-22T07:54:53;51309.91;;;-142.34;26.58
12951;BME280;6540;50.858;7.232;2023-06-22T07:57:18;51346.22;;;-142.34;27.50
12951;BME280;6540;50.858;7.232;2023-06-22T07:59:44;51420.84;;;-142.34;28.40
12951;BME280;6540;50.858;7.232;2023-06-22T08:02:10;51392.59;;;-142.34;28.65
12951;BME280;6540;50.858;7.232;2023-06-22T08:04:35;51328.06;;;-142.34;26.84
12951;BME280;6540;50.858;7.232;2023-06-22T08:07:01;51372.44;;;-142.34;27.74
12951;BME280;6540;50.858;7.232;2023-06-22T08:09:30;51364.38;;;-142.34;27.27
12951;BME280;6540;50.858;7.232;2023-06-22T08:11:56;51305.88;;;-142.34;26.93
12951;BME280;6540;50.858;7.232;2023-06-22T08:14:25;51378.50;;;-142.34;27.72
12951;BME280;6540;50.858;7.232;2023-06-22T08:16:50;51313.94;;;-142.34;27.16
12951;BME280;6540;50.858;7.232;2023-06-22T08:19:16;51261.50;;;-142.34;26.28
12951;BME280;6540;50.858;7.232;2023-06-22T08:21:42;51338.16;;;-142.34;27.34
12951;BME280;6540;50.858;7.232;2023-06-22T08:24:07;51307.88;;;-142.34;26.50
12951;BME280;6540;50.858;7.232;2023-06-22T08:26:33;51265.53;;;-142.34;26.54
12951;BME280;6540;50.858;7.232;2023-06-22T08:29:02;51307.88;;;-142.34;26.83
12951;BME280;6540;50.858;7.232;2023-06-22T08:31:28;51299.81;;;-142.34;26.66
12951;BME280;6540;50.858;7.232;2023-06-22T08:33:53;51221.16;;;-142.34;26.17
12951;BME280;6540;50.858;7.232;2023-06-22T08:36:19;51366.38;;;-142.34;27.90
12951;BME280;6540;50.858;7.232;2023-06-22T08:38:44;51354.28;;;-142.34;27.27
12951;BME280;6540;50.858;7.232;2023-06-22T08:41:10;51366.38;;;-142.34;27.80
12951;BME280;6540;50.858;7.232;2023-06-22T08:43:35;51334.13;;;-142.34;27.54
12951;BME280;6540;50.858;7.232;2023-06-22T08:46:01;51414.78;;;-142.34;28.78
12951;BME280;6540;50.858;7.232;2023-06-22T08:48:28;51322.00;;;-142.34;26.92
12951;BME280;6540;50.858;7.232;2023-06-22T08:50:53;51432.94;;;-142.34;28.91
12951;BME280;6540;50.858;7.232;2023-06-22T08:53:18;51350.25;;;-142.34;27.92
12951;BME280;6540;50.858;7.232;2023-06-22T08:55:44;51414.78;;;-142.34;28.98
12951;BME280;6540;50.858;7.232;2023-06-22T08:58:10;51394.63;;;-142.34;28.41
12951;BME280;6540;50.858;7.232;2023-06-22T09:00:35;51374.44;;;-142.34;28.26
12951;BME280;6540;50.858;7.232;2023-06-22T09:03:01;51309.91;;;-142.34;27.05
12951;BME280;6540;50.858;7.232;2023-06-22T09:05:26;51394.63;;;-142.34;28.10
12951;BME280;6540;50.858;7.232;2023-06-22T09:07:52;51273.59;;;-142.34;26.15
12951;BME280;6540;50.858;7.232;2023-06-22T09:10:20;51315.97;;;-142.34;27.30
12951;BME280;6540;50.858;7.232;2023-06-22T09:12:45;51370.41;;;-142.34;28.02
12951;BME280;6540;50.858;7.232;2023-06-22T09:15:11;51326.03;;;-142.34;27.19
12951;BME280;6540;50.858;7.232;2023-06-22T09:17:36;51382.53;;;-142.34;28.53
12951;BME280;6540;50.858;7.232;2023-06-22T09:20:02;51412.78;;;-142.34;29.17
12951;BME280;6540;50.858;7.232;2023-06-22T09:22:31;51370.41;;;-142.34;28.32
12951;BME280;6540;50.858;7.232;2023-06-22T09:24:56;51366.38;;;-142.34;28.03
12951;BME280;6540;50.858;7.232;2023-06-22T09:27:22;51422.88;;;-142.34;29.44
12951;BME280;6540;50.858;7.232;2023-06-22T09:29:49;51404.72;;;-142.34;28.43
12951;BME280;6540;50.858;7.232;2023-06-22T09:32:14;51354.28;;;-142.34;27.75
12951;BME280;6540;50.858;7.232;2023-06-22T09:34:39;51237.28;;;-142.34;26.05
12951;BME280;6540;50.858;7.232;2023-06-22T09:37:05;51305.88;;;-142.34;27.37
12951;BME280;6540;50.858;7.232;2023-06-22T09:39:30;51370.41;;;-142.34;28.38
12951;BME280;6540;50.858;7.232;2023-06-22T09:41:58;51293.78;;;-142.34;27.03
12951;BME280;6540;50.858;7.232;2023-06-22T09:44:24;51344.19;;;-142.34;27.38
12951;BME280;6540;50.858;7.232;2023-06-22T09:46:49;51350.25;;;-142.34;27.56
12951;BME280;6540;50.858;7.232;2023-06-22T09:49:14;51418.84;;;-142.34;27.76
12951;BME280;6540;50.858;7.232;2023-06-22T09:51:40;51311.94;;;-142.34;26.44
12951;BME280;6540;50.858;7.232;2023-06-22T09:54:11;51350.25;;;-142.34;26.90
12951;BME280;6540;50.858;7.232;2023-06-22T09:56:36;51309.91;;;-142.34;26.54
12951;BME280;6540;50.858;7.232;2023-06-22T09:59:02;51320.00;;;-142.34;26.99
12951;BME280;6540;50.858;7.232;2023-06-22T10:01:28;51344.19;;;-142.34;26.26
12951;BME280;6540;50.858;7.232;2023-06-22T10:03:53;51227.22;;;-142.34;25.38
12951;BME280;6540;50.858;7.232;2023-06-22T10:06:21;51263.53;;;-142.34;25.87
12951;BME280;6540;50.858;7.232;2023-06-22T10:08:46;51336.13;;;-142.34;26.46
12951;BME280;6540;50.858;7.232;2023-06-22T10:11:13;51285.72;;;-142.34;25.39
12951;BME280;6540;50.858;7.232;2023-06-22T10:13:38;51330.06;;;-142.34;26.42
12951;BME280;6540;50.858;7.232;2023-06-22T10:16:04;51293.78;;;-142.34;25.46
12951;BME280;6540;50.858;7.232;2023-06-22T10:18:29;51279.66;;;-142.34;25.67
12951;BME280;6540;50.858;7.232;2023-06-22T10:20:55;51340.16;;;-142.34;26.48
12951;BME280;6540;50.858;7.232;2023-06-22T10:23:21;51281.66;;;-142.34;25.78
12951;BME280;6540;50.858;7.232;2023-06-22T10:25:47;51434.97;;;-142.34;27.91
12951;BME280;6540;50.858;7.232;2023-06-22T10:28:12;51293.78;;;-142.34;25.84
12951;BME280;6540;50.858;7.232;2023-06-22T10:30:39;51303.84;;;-142.34;25.79
12951;BME280;6540;50.858;7.232;2023-06-22T10:33:07;51267.56;;;-142.34;26.21
12951;BME280;6540;50.858;7.232;2023-06-22T10:35:32;51251.41;;;-142.34;26.00
12951;BME280;6540;50.858;7.232;2023-06-22T10:37:58;51322.00;;;-142.34;26.85
12951;BME280;6540;50.858;7.232;2023-06-22T10:40:23;51320.00;;;-142.34;26.91
12951;BME280;6540;50.858;7.232;2023-06-22T10:42:48;51301.84;;;-142.34;26.91
12951;BME280;6540;50.858;7.232;2023-06-22T10:45:15;51295.78;;;-142.34;27.15
12951;BME280;6540;50.858;7.232;2023-06-22T10:47:41;51273.59;;;-142.34;27.03
12951;BME280;6540;50.858;7.232;2023-06-22T10:50:10;51277.63;;;-142.34;27.87
12951;BME280;6540;50.858;7.232;2023-06-22T10:52:36;51330.06;;;-142.34;28.71
12951;BME280;6540;50.858;7.232;2023-06-22T10:55:01;51332.09;;;-142.34;28.58
12951;BME280;6540;50.858;7.232;2023-06-22T10:57:26;51322.00;;;-142.34;28.71
12951;BME280;6540;50.858;7.232;2023-06-22T10:59:52;51374.44;;;-142.34;29.53
12951;BME280;6540;50.858;7.232;2023-06-22T11:02:17;51342.19;;;-142.34;27.85
12951;BME280;6540;50.858;7.232;2023-06-22T11:04:42;51330.06;;;-142.34;28.10
12951;BME280;6540;50.858;7.232;2023-06-22T11:07:09;51346.22;;;-142.34;28.78
12951;BME280;6540;50.858;7.232;2023-06-22T11:09:34;51386.56;;;-142.34;29.80
12951;BME280;6540;50.858;7.232;2023-06-22T11:12:00;51390.59;;;-142.34;30.42
12951;BME280;6540;50.858;7.232;2023-06-22T11:14:25;51430.94;;;-142.34;31.32
12951;BME280;6540;50.858;7.232;2023-06-22T11:16:51;51394.63;;;-142.34;30.91
12951;BME280;6540;50.858;7.232;2023-06-22T11:19:16;51463.22;;;-142.34;31.74
12951;BME280;6540;50.858;7.232;2023-06-22T11:21:42;51473.28;;;-142.34;31.50
12951;BME280;6540;50.858;7.232;2023-06-22T11:24:07;51449.09;;;-142.34;31.17
12951;BME280;6540;50.858;7.232;2023-06-22T11:26:33;51436.97;;;-142.34;31.11
12951;BME280;6540;50.858;7.232;2023-06-22T11:28:59;51390.59;;;-142.34;30.14
12951;BME280;6540;50.858;7.232;2023-06-22T11:31:25;51362.34;;;-142.34;29.83
12951;BME280;6540;50.858;7.232;2023-06-22T11:33:50;51394.63;;;-142.34;30.91
12951;BME280;6540;50.858;7.232;2023-06-22T11:36:16;51547.94;;;-142.34;33.10
12951;BME280;6540;50.858;7.232;2023-06-22T11:38:42;51501.53;;;-142.34;32.91
12951;BME280;6540;50.858;7.232;2023-06-22T11:41:08;51493.47;;;-142.34;32.13
12951;BME280;6540;50.858;7.232;2023-06-22T11:43:34;51489.44;;;-142.34;31.22
12951;BME280;6540;50.858;7.232;2023-06-22T11:46:01;51439.00;;;-142.34;30.95
12951;BME280;6540;50.858;7.232;2023-06-22T11:48:27;51392.59;;;-142.34;29.91
12951;BME280;6540;50.858;7.232;2023-06-22T11:50:53;51471.28;;;-142.34;31.72
12951;BME280;6540;50.858;7.232;2023-06-22T11:53:24;51404.72;;;-142.34;31.65
12951;BME280;6540;50.858;7.232;2023-06-22T11:55:49;51471.28;;;-142.34;32.19
12951;BME280;6540;50.858;7.232;2023-06-22T11:58:18;51483.38;;;-142.34;32.96
12951;BME280;6540;50.858;7.232;2023-06-22T12:00:43;51475.31;;;-142.34;32.00
12951;BME280;6540;50.858;7.232;2023-06-22T12:03:10;51515.66;;;-142.34;32.97
12951;BME280;6540;50.858;7.232;2023-06-22T12:05:37;51434.97;;;-142.34;30.81
12951;BME280;6540;50.858;7.232;2023-06-22T12:08:03;51366.38;;;-142.34;29.55
12951;BME280;6540;50.858;7.232;2023-06-22T12:10:28;51358.31;;;-142.34;29.38
12951;BME280;6540;50.858;7.232;2023-06-22T12:12:54;51465.22;;;-142.34;31.30
12951;BME280;6540;50.858;7.232;2023-06-22T12:15:19;51457.16;;;-142.34;31.43
12951;BME280;6540;50.858;7.232;2023-06-22T12:17:44;51473.28;;;-142.34;31.50
12951;BME280;6540;50.858;7.232;2023-06-22T12:20:10;51531.78;;;-142.34;32.96
12951;BME280;6540;50.858;7.232;2023-06-22T12:22:36;51436.97;;;-142.34;30.60
12951;BME280;6540;50.858;7.232;2023-06-22T12:25:03;51449.09;;;-142.34;30.27
12951;BME280;6540;50.858;7.232;2023-06-22T12:27:28;51436.97;;;-142.34;29.64
12951;BME280;6540;50.858;7.232;2023-06-22T12:29:55;51491.44;;;-142.34;31.06
12951;BME280;6540;50.858;7.232;2023-06-22T12:32:24;51463.22;;;-142.34;30.92
12951;BME280;6540;50.858;7.232;2023-06-22T12:34:50;51457.16;;;-142.34;30.70
12951;BME280;6540;50.858;7.232;2023-06-22T12:37:16;51447.06;;;-142.34;29.90
12951;BME280;6540;50.858;7.232;2023-06-22T12:39:41;51402.69;;;-142.34;30.06
12951;BME280;6540;50.858;7.232;2023-06-22T12:42:07;51360.34;;;-142.34;28.64
12951;BME280;6540;50.858;7.232;2023-06-22T12:44:34;51370.41;;;-142.34;29.60
12951;BME280;6540;50.858;7.232;2023-06-22T12:46:59;51334.13;;;-142.34;29.07
12951;BME280;6540;50.858;7.232;2023-06-22T12:49:25;51519.69;;;-142.34;32.21
12951;BME280;6540;50.858;7.232;2023-06-22T12:51:50;51489.44;;;-142.34;31.45
12951;BME280;6540;50.858;7.232;2023-06-22T12:54:15;51455.13;;;-142.34;30.50
12951;BME280;6540;50.858;7.232;2023-06-22T12:56:41;51422.88;;;-142.34;30.91
12951;BME280;6540;50.858;7.232;2023-06-22T12:59:09;51459.16;;;-142.34;30.15